Terminal Aerodrome Forecast
Issued by NWS Des Moines, IA

Home | Current Version | Previous Version | Text Only | Print | Product List | Glossary On
Versions: 1 2 3 4 5 6 7 8 9 10 11 12 13 14 15 16 17 18 19 20
000
FTUS43 KDMX 240322 AAA
TAFALO
TAF AMD
KALO 240322Z 2403/2424 04016G25KT 5SM -SHRA BR OVC010
      TEMPO 2403/2405 2SM -TSRA BKN008 OVC015CB
     FM240700 04020G31KT 3SM -RASN OVC008
     FM241300 02024G36KT 1SM -SN OVC007
     FM241600 01027G37KT 1/2SM -SN BLSN OVC004=

USA.gov is the U.S. government's official web portal to all federal, state and local government web resources and services.